sensor_id;sensor_type;location;lat;lon;timestamp;P1;durP1;ratioP1;P2;durP2;ratioP2
32625;SDS011;19038;50.922;11.880;2022-08-19T00:01:46;19.10;;;17.10;;
32625;SDS011;19038;50.922;11.880;2022-08-19T00:06:46;20.73;;;18.73;;
32625;SDS011;19038;50.922;11.880;2022-08-19T00:11:46;20.80;;;18.60;;
32625;SDS011;19038;50.922;11.880;2022-08-19T00:16:46;23.60;;;21.10;;
32625;SDS011;19038;50.922;11.880;2022-08-19T00:21:46;21.33;;;19.33;;
32625;SDS011;19038;50.922;11.880;2022-08-19T00:26:46;23.50;;;21.20;;
32625;SDS011;19038;50.922;11.880;2022-08-19T00:31:46;23.90;;;21.40;;
32625;SDS011;19038;50.922;11.880;2022-08-19T00:36:46;22.90;;;20.70;;
32625;SDS011;19038;50.922;11.880;2022-08-19T00:41:46;21.90;;;19.80;;
32625;SDS011;19038;50.922;11.880;2022-08-19T00:46:46;21.37;;;19.17;;
32625;SDS011;19038;50.922;11.880;2022-08-19T00:51:47;22.80;;;20.43;;
32625;SDS011;19038;50.922;11.880;2022-08-19T00:56:46;23.27;;;21.07;;
32625;SDS011;19038;50.922;11.880;2022-08-19T01:01:46;23.07;;;20.87;;
32625;SDS011;19038;50.922;11.880;2022-08-19T01:06:46;21.80;;;19.70;;
32625;SDS011;19038;50.922;11.880;2022-08-19T01:11:46;21.90;;;19.80;;
32625;SDS011;19038;50.922;11.880;2022-08-19T01:16:46;22.43;;;20.30;;
32625;SDS011;19038;50.922;11.880;2022-08-19T01:21:48;22.43;;;20.23;;
32625;SDS011;19038;50.922;11.880;2022-08-19T01:26:46;24.33;;;21.80;;
32625;SDS011;19038;50.922;11.880;2022-08-19T01:31:46;22.70;;;20.50;;
32625;SDS011;19038;50.922;11.880;2022-08-19T01:36:46;22.40;;;20.23;;
32625;SDS011;19038;50.922;11.880;2022-08-19T01:41:46;20.43;;;18.50;;
32625;SDS011;19038;50.922;11.880;2022-08-19T01:46:47;24.50;;;22.03;;
32625;SDS011;19038;50.922;11.880;2022-08-19T01:51:46;21.97;;;19.67;;
32625;SDS011;19038;50.922;11.880;2022-08-19T01:56:46;24.87;;;22.47;;
32625;SDS011;19038;50.922;11.880;2022-08-19T02:01:46;23.30;;;20.97;;
32625;SDS011;19038;50.922;11.880;2022-08-19T02:06:46;22.47;;;20.17;;
32625;SDS011;19038;50.922;11.880;2022-08-19T02:11:46;22.63;;;20.50;;
32625;SDS011;19038;50.922;11.880;2022-08-19T02:16:46;22.90;;;20.60;;
32625;SDS011;19038;50.922;11.880;2022-08-19T02:21:46;24.53;;;22.13;;
32625;SDS011;19038;50.922;11.880;2022-08-19T02:26:46;24.93;;;22.47;;
32625;SDS011;19038;50.922;11.880;2022-08-19T02:31:46;26.40;;;23.17;;
32625;SDS011;19038;50.922;11.880;2022-08-19T02:36:46;26.03;;;23.30;;
32625;SDS011;19038;50.922;11.880;2022-08-19T02:41:46;25.87;;;23.30;;
32625;SDS011;19038;50.922;11.880;2022-08-19T02:46:46;26.37;;;23.87;;
32625;SDS011;19038;50.922;11.880;2022-08-19T02:51:46;26.70;;;24.03;;
32625;SDS011;19038;50.922;11.880;2022-08-19T02:56:46;24.73;;;22.23;;
32625;SDS011;19038;50.922;11.880;2022-08-19T03:01:46;27.53;;;22.97;;
32625;SDS011;19038;50.922;11.880;2022-08-19T03:06:46;24.53;;;22.03;;
32625;SDS011;19038;50.922;11.880;2022-08-19T03:11:46;25.50;;;23.10;;
32625;SDS011;19038;50.922;11.880;2022-08-19T03:16:47;24.50;;;22.07;;
32625;SDS011;19038;50.922;11.880;2022-08-19T03:21:46;24.13;;;21.63;;
32625;SDS011;19038;50.922;11.880;2022-08-19T03:26:47;25.93;;;23.47;;
32625;SDS011;19038;50.922;11.880;2022-08-19T03:31:46;28.10;;;25.30;;
32625;SDS011;19038;50.922;11.880;2022-08-19T03:36:46;29.07;;;26.00;;
32625;SDS011;19038;50.922;11.880;2022-08-19T03:41:47;27.83;;;25.03;;
32625;SDS011;19038;50.922;11.880;2022-08-19T03:46:47;26.43;;;23.67;;
32625;SDS011;19038;50.922;11.880;2022-08-19T03:51:47;26.83;;;24.13;;
32625;SDS011;19038;50.922;11.880;2022-08-19T03:56:47;25.43;;;23.00;;
32625;SDS011;19038;50.922;11.880;2022-08-19T04:01:46;25.97;;;23.40;;
32625;SDS011;19038;50.922;11.880;2022-08-19T04:06:46;28.93;;;25.97;;
32625;SDS011;19038;50.922;11.880;2022-08-19T04:11:47;26.10;;;23.40;;
32625;SDS011;19038;50.922;11.880;2022-08-19T04:16:46;25.70;;;22.93;;
32625;SDS011;19038;50.922;11.880;2022-08-19T04:21:46;28.37;;;25.37;;
32625;SDS011;19038;50.922;11.880;2022-08-19T04:26:46;26.70;;;24.10;;
32625;SDS011;19038;50.922;11.880;2022-08-19T04:31:46;27.10;;;24.30;;
32625;SDS011;19038;50.922;11.880;2022-08-19T04:36:46;27.40;;;24.60;;
32625;SDS011;19038;50.922;11.880;2022-08-19T04:41:46;27.33;;;24.50;;
32625;SDS011;19038;50.922;11.880;2022-08-19T04:46:47;27.80;;;24.97;;
32625;SDS011;19038;50.922;11.880;2022-08-19T04:51:46;28.07;;;25.27;;
32625;SDS011;19038;50.922;11.880;2022-08-19T04:56:46;29.37;;;26.37;;
32625;SDS011;19038;50.922;11.880;2022-08-19T05:01:46;27.00;;;24.20;;
32625;SDS011;19038;50.922;11.880;2022-08-19T05:06:47;29.00;;;25.90;;
32625;SDS011;19038;50.922;11.880;2022-08-19T05:11:46;31.23;;;27.93;;
32625;SDS011;19038;50.922;11.880;2022-08-19T05:16:46;29.47;;;26.33;;
32625;SDS011;19038;50.922;11.880;2022-08-19T05:21:46;32.37;;;28.20;;
32625;SDS011;19038;50.922;11.880;2022-08-19T05:26:46;31.23;;;27.80;;
32625;SDS011;19038;50.922;11.880;2022-08-19T05:31:47;30.30;;;27.17;;
32625;SDS011;19038;50.922;11.880;2022-08-19T05:36:46;29.93;;;26.83;;
32625;SDS011;19038;50.922;11.880;2022-08-19T05:41:47;30.50;;;27.30;;
32625;SDS011;19038;50.922;11.880;2022-08-19T05:46:49;32.23;;;28.90;;
32625;SDS011;19038;50.922;11.880;2022-08-19T05:51:46;33.00;;;29.50;;
32625;SDS011;19038;50.922;11.880;2022-08-19T05:56:46;32.77;;;28.50;;
32625;SDS011;19038;50.922;11.880;2022-08-19T06:01:46;34.10;;;29.70;;
32625;SDS011;19038;50.922;11.880;2022-08-19T06:06:46;31.27;;;27.97;;
32625;SDS011;19038;50.922;11.880;2022-08-19T06:11:47;34.00;;;30.27;;
32625;SDS011;19038;50.922;11.880;2022-08-19T06:16:46;35.33;;;31.70;;
32625;SDS011;19038;50.922;11.880;2022-08-19T06:21:47;34.83;;;31.00;;
32625;SDS011;19038;50.922;11.880;2022-08-19T06:26:47;37.73;;;33.70;;
32625;SDS011;19038;50.922;11.880;2022-08-19T06:31:48;34.73;;;31.03;;
32625;SDS011;19038;50.922;11.880;2022-08-19T06:36:48;34.77;;;31.17;;
32625;SDS011;19038;50.922;11.880;2022-08-19T06:41:47;34.87;;;29.47;;
32625;SDS011;19038;50.922;11.880;2022-08-19T06:46:46;35.13;;;31.30;;
32625;SDS011;19038;50.922;11.880;2022-08-19T06:51:47;35.10;;;30.97;;
32625;SDS011;19038;50.922;11.880;2022-08-19T06:56:46;34.70;;;30.77;;
32625;SDS011;19038;50.922;11.880;2022-08-19T07:01:50;34.00;;;29.80;;
32625;SDS011;19038;50.922;11.880;2022-08-19T07:06:46;34.33;;;30.47;;
32625;SDS011;19038;50.922;11.880;2022-08-19T07:11:47;32.63;;;29.17;;
32625;SDS011;19038;50.922;11.880;2022-08-19T07:16:47;33.93;;;30.43;;
32625;SDS011;19038;50.922;11.880;2022-08-19T07:21:47;34.07;;;30.47;;
32625;SDS011;19038;50.922;11.880;2022-08-19T07:26:46;33.77;;;29.60;;
32625;SDS011;19038;50.922;11.880;2022-08-19T07:31:46;34.63;;;30.70;;
32625;SDS011;19038;50.922;11.880;2022-08-19T07:36:46;31.57;;;28.37;;
32625;SDS011;19038;50.922;11.880;2022-08-19T07:41:46;31.87;;;28.43;;
32625;SDS011;19038;50.922;11.880;2022-08-19T07:46:48;33.00;;;29.47;;
32625;SDS011;19038;50.922;11.880;2022-08-19T07:51:47;32.87;;;29.47;;
32625;SDS011;19038;50.922;11.880;2022-08-19T07:56:46;32.67;;;29.13;;
32625;SDS011;19038;50.922;11.880;2022-08-19T08:01:47;31.33;;;28.10;;
32625;SDS011;19038;50.922;11.880;2022-08-19T08:06:46;31.83;;;28.43;;
32625;SDS011;19038;50.922;11.880;2022-08-19T08:11:49;30.57;;;27.03;;
32625;SDS011;19038;50.922;11.880;2022-08-19T08:16:46;31.63;;;28.33;;
32625;SDS011;19038;50.922;11.880;2022-08-19T08:21:47;30.13;;;27.13;;
32625;SDS011;19038;50.922;11.880;2022-08-19T08:26:14;30.70;;;27.53;;
32625;SDS011;19038;50.922;11.880;2022-08-19T08:31:14;31.07;;;27.77;;
32625;SDS011;19038;50.922;11.880;2022-08-19T08:36:14;30.00;;;26.90;;
32625;SDS011;19038;50.922;11.880;2022-08-19T08:41:20;30.30;;;27.23;;
32625;SDS011;19038;50.922;11.880;2022-08-19T08:46:16;29.40;;;26.23;;
32625;SDS011;19038;50.922;11.880;2022-08-19T08:51:16;29.90;;;26.93;;
32625;SDS011;19038;50.922;11.880;2022-08-19T08:56:14;29.93;;;27.03;;
32625;SDS011;19038;50.922;11.880;2022-08-19T09:01:14;30.73;;;26.73;;
32625;SDS011;19038;50.922;11.880;2022-08-19T09:06:19;31.67;;;28.10;;
32625;SDS011;19038;50.922;11.880;2022-08-19T09:11:19;34.17;;;30.47;;
32625;SDS011;19038;50.922;11.880;2022-08-19T09:16:15;30.23;;;27.13;;
32625;SDS011;19038;50.922;11.880;2022-08-19T09:21:14;22.30;;;20.10;;
32625;SDS011;19038;50.922;11.880;2022-08-19T09:26:15;19.50;;;17.60;;
32625;SDS011;19038;50.922;11.880;2022-08-19T09:31:15;18.33;;;16.63;;
32625;SDS011;19038;50.922;11.880;2022-08-19T09:36:14;17.70;;;16.00;;
32625;SDS011;19038;50.922;11.880;2022-08-19T09:41:15;16.07;;;14.47;;
32625;SDS011;19038;50.922;11.880;2022-08-19T09:46:14;16.33;;;14.10;;
32625;SDS011;19038;50.922;11.880;2022-08-19T09:51:15;13.20;;;11.83;;
32625;SDS011;19038;50.922;11.880;2022-08-19T09:56:14;12.73;;;11.43;;
32625;SDS011;19038;50.922;11.880;2022-08-19T10:01:16;13.43;;;12.23;;
32625;SDS011;19038;50.922;11.880;2022-08-19T10:06:14;15.20;;;13.70;;
32625;SDS011;19038;50.922;11.880;2022-08-19T10:11:14;14.33;;;13.00;;
32625;SDS011;19038;50.922;11.880;2022-08-19T10:16:15;14.47;;;13.17;;
32625;SDS011;19038;50.922;11.880;2022-08-19T10:21:15;15.20;;;13.70;;
32625;SDS011;19038;50.922;11.880;2022-08-19T10:26:15;14.77;;;13.37;;
32625;SDS011;19038;50.922;11.880;2022-08-19T10:31:17;15.63;;;14.13;;
32625;SDS011;19038;50.922;11.880;2022-08-19T10:36:16;15.43;;;13.83;;
32625;SDS011;19038;50.922;11.880;2022-08-19T10:41:15;13.47;;;12.27;;
32625;SDS011;19038;50.922;11.880;2022-08-19T10:46:14;12.83;;;11.63;;
32625;SDS011;19038;50.922;11.880;2022-08-19T10:51:14;13.20;;;12.00;;
32625;SDS011;19038;50.922;11.880;2022-08-19T10:56:14;10.60;;;9.60;;
32625;SDS011;19038;50.922;11.880;2022-08-19T11:01:14;10.60;;;9.70;;
32625;SDS011;19038;50.922;11.880;2022-08-19T11:06:14;11.13;;;10.13;;
32625;SDS011;19038;50.922;11.880;2022-08-19T11:11:14;9.67;;;8.80;;
32625;SDS011;19038;50.922;11.880;2022-08-19T11:16:16;9.50;;;8.50;;
32625;SDS011;19038;50.922;11.880;2022-08-19T11:21:17;9.50;;;8.60;;
32625;SDS011;19038;50.922;11.880;2022-08-19T11:26:14;7.43;;;6.83;;
32625;SDS011;19038;50.922;11.880;2022-08-19T11:31:15;6.40;;;5.90;;
32625;SDS011;19038;50.922;11.880;2022-08-19T11:36:14;7.20;;;6.50;;
32625;SDS011;19038;50.922;11.880;2022-08-19T11:41:14;8.33;;;7.63;;
32625;SDS011;19038;50.922;11.880;2022-08-19T11:46:14;7.60;;;7.00;;
32625;SDS011;19038;50.922;11.880;2022-08-19T11:51:15;8.37;;;7.60;;
32625;SDS011;19038;50.922;11.880;2022-08-19T11:56:14;8.93;;;8.13;;
32625;SDS011;19038;50.922;11.880;2022-08-19T12:01:15;9.70;;;8.90;;
32625;SDS011;19038;50.922;11.880;2022-08-19T12:06:16;8.43;;;7.73;;
32625;SDS011;19038;50.922;11.880;2022-08-19T12:11:14;10.40;;;9.20;;
32625;SDS011;19038;50.922;11.880;2022-08-19T12:16:15;9.00;;;8.30;;
32625;SDS011;19038;50.922;11.880;2022-08-19T12:21:15;9.93;;;9.03;;
32625;SDS011;19038;50.922;11.880;2022-08-19T12:26:14;10.13;;;9.23;;
32625;SDS011;19038;50.922;11.880;2022-08-19T12:31:14;11.00;;;10.00;;
32625;SDS011;19038;50.922;11.880;2022-08-19T12:36:15;9.70;;;8.90;;
32625;SDS011;19038;50.922;11.880;2022-08-19T12:41:15;9.53;;;8.77;;
32625;SDS011;19038;50.922;11.880;2022-08-19T12:46:14;9.60;;;8.83;;
32625;SDS011;19038;50.922;11.880;2022-08-19T12:51:15;8.77;;;8.07;;
32625;SDS011;19038;50.922;11.880;2022-08-19T12:56:14;10.40;;;9.60;;
32625;SDS011;19038;50.922;11.880;2022-08-19T13:01:15;9.47;;;8.67;;
32625;SDS011;19038;50.922;11.880;2022-08-19T13:06:14;9.37;;;8.57;;
32625;SDS011;19038;50.922;11.880;2022-08-19T13:11:16;9.03;;;8.33;;
32625;SDS011;19038;50.922;11.880;2022-08-19T13:16:14;9.67;;;8.70;;
32625;SDS011;19038;50.922;11.880;2022-08-19T13:21:15;9.87;;;8.97;;
32625;SDS011;19038;50.922;11.880;2022-08-19T13:26:15;9.87;;;9.00;;
32625;SDS011;19038;50.922;11.880;2022-08-19T13:31:15;11.17;;;10.23;;
32625;SDS011;19038;50.922;11.880;2022-08-19T13:36:14;10.80;;;9.90;;
32625;SDS011;19038;50.922;11.880;2022-08-19T13:41:14;10.90;;;10.00;;
32625;SDS011;19038;50.922;11.880;2022-08-19T13:46:14;11.70;;;10.60;;
32625;SDS011;19038;50.922;11.880;2022-08-19T13:51:15;10.50;;;9.60;;
32625;SDS011;19038;50.922;11.880;2022-08-19T13:56:15;10.50;;;9.67;;
32625;SDS011;19038;50.922;11.880;2022-08-19T14:01:18;12.30;;;11.20;;
32625;SDS011;19038;50.922;11.880;2022-08-19T14:06:14;13.10;;;11.93;;
32625;SDS011;19038;50.922;11.880;2022-08-19T14:11:14;10.77;;;9.97;;
32625;SDS011;19038;50.922;11.880;2022-08-19T14:16:14;8.80;;;8.20;;
32625;SDS011;19038;50.922;11.880;2022-08-19T14:21:16;8.53;;;7.63;;
32625;SDS011;19038;50.922;11.880;2022-08-19T14:26:16;8.20;;;7.60;;
32625;SDS011;19038;50.922;11.880;2022-08-19T14:31:15;8.07;;;7.40;;
32625;SDS011;19038;50.922;11.880;2022-08-19T14:36:14;7.00;;;6.50;;
32625;SDS011;19038;50.922;11.880;2022-08-19T14:41:18;7.37;;;6.77;;
32625;SDS011;19038;50.922;11.880;2022-08-19T14:46:15;7.20;;;6.60;;
32625;SDS011;19038;50.922;11.880;2022-08-19T14:51:15;7.40;;;6.90;;
32625;SDS011;19038;50.922;11.880;2022-08-19T14:56:15;7.13;;;6.53;;
32625;SDS011;19038;50.922;11.880;2022-08-19T15:01:14;7.80;;;7.10;;
32625;SDS011;19038;50.922;11.880;2022-08-19T15:06:15;7.30;;;6.70;;
32625;SDS011;19038;50.922;11.880;2022-08-19T15:11:15;7.93;;;7.33;;
32625;SDS011;19038;50.922;11.880;2022-08-19T15:16:15;9.07;;;8.27;;
32625;SDS011;19038;50.922;11.880;2022-08-19T15:21:15;9.97;;;9.13;;
32625;SDS011;19038;50.922;11.880;2022-08-19T15:26:15;9.53;;;8.73;;
32625;SDS011;19038;50.922;11.880;2022-08-19T15:31:17;8.83;;;8.10;;
32625;SDS011;19038;50.922;11.880;2022-08-19T15:36:14;8.57;;;7.77;;
32625;SDS011;19038;50.922;11.880;2022-08-19T15:41:16;7.93;;;7.33;;
32625;SDS011;19038;50.922;11.880;2022-08-19T15:46:17;7.77;;;7.07;;
32625;SDS011;19038;50.922;11.880;2022-08-19T15:51:14;7.90;;;7.30;;
32625;SDS011;19038;50.922;11.880;2022-08-19T15:56:15;8.10;;;7.50;;
32625;SDS011;19038;50.922;11.880;2022-08-19T16:01:14;8.23;;;7.30;;
32625;SDS011;19038;50.922;11.880;2022-08-19T16:06:14;6.63;;;6.13;;
32625;SDS011;19038;50.922;11.880;2022-08-19T16:11:16;7.40;;;6.73;;
32625;SDS011;19038;50.922;11.880;2022-08-19T16:16:14;6.53;;;5.93;;
32625;SDS011;19038;50.922;11.880;2022-08-19T16:21:15;7.53;;;6.90;;
32625;SDS011;19038;50.922;11.880;2022-08-19T16:31:15;6.43;;;5.93;;
32625;SDS011;19038;50.922;11.880;2022-08-19T16:36:14;5.90;;;5.40;;
32625;SDS011;19038;50.922;11.880;2022-08-19T16:41:15;5.27;;;4.87;;
32625;SDS011;19038;50.922;11.880;2022-08-19T16:46:14;5.40;;;4.90;;
32625;SDS011;19038;50.922;11.880;2022-08-19T16:51:15;5.50;;;5.10;;
32625;SDS011;19038;50.922;11.880;2022-08-19T16:56:14;5.60;;;5.20;;
32625;SDS011;19038;50.922;11.880;2022-08-19T17:01:15;5.83;;;5.37;;
32625;SDS011;19038;50.922;11.880;2022-08-19T17:06:16;5.10;;;4.70;;
32625;SDS011;19038;50.922;11.880;2022-08-19T17:11:15;5.13;;;3.87;;
32625;SDS011;19038;50.922;11.880;2022-08-19T17:16:16;5.03;;;4.63;;
32625;SDS011;19038;50.922;11.880;2022-08-19T17:21:14;5.50;;;5.10;;
32625;SDS011;19038;50.922;11.880;2022-08-19T17:26:15;6.90;;;6.23;;
32625;SDS011;19038;50.922;11.880;2022-08-19T17:31:15;6.30;;;5.53;;
32625;SDS011;19038;50.922;11.880;2022-08-19T17:36:16;5.40;;;5.00;;
32625;SDS011;19038;50.922;11.880;2022-08-19T17:41:15;6.13;;;5.40;;
32625;SDS011;19038;50.922;11.880;2022-08-19T17:46:14;5.20;;;4.80;;
32625;SDS011;19038;50.922;11.880;2022-08-19T17:51:16;5.10;;;4.70;;
32625;SDS011;19038;50.922;11.880;2022-08-19T17:56:14;5.07;;;4.63;;
32625;SDS011;19038;50.922;11.880;2022-08-19T18:01:15;5.53;;;5.13;;
32625;SDS011;19038;50.922;11.880;2022-08-19T18:06:15;5.97;;;5.47;;
32625;SDS011;19038;50.922;11.880;2022-08-19T18:11:15;6.07;;;5.67;;
32625;SDS011;19038;50.922;11.880;2022-08-19T18:16:14;6.27;;;5.87;;
32625;SDS011;19038;50.922;11.880;2022-08-19T18:21:14;7.00;;;6.27;;
32625;SDS011;19038;50.922;11.880;2022-08-19T18:26:14;7.07;;;6.43;;
32625;SDS011;19038;50.922;11.880;2022-08-19T18:31:15;7.90;;;7.20;;
32625;SDS011;19038;50.922;11.880;2022-08-19T18:36:15;7.73;;;7.13;;
32625;SDS011;19038;50.922;11.880;2022-08-19T18:41:15;8.63;;;8.03;;
32625;SDS011;19038;50.922;11.880;2022-08-19T18:46:14;8.17;;;6.87;;
32625;SDS011;19038;50.922;11.880;2022-08-19T18:51:16;8.17;;;7.47;;
32625;SDS011;19038;50.922;11.880;2022-08-19T18:56:16;7.57;;;6.97;;
32625;SDS011;19038;50.922;11.880;2022-08-19T19:01:16;8.03;;;7.40;;
32625;SDS011;19038;50.922;11.880;2022-08-19T19:06:17;7.77;;;7.00;;
32625;SDS011;19038;50.922;11.880;2022-08-19T19:11:16;13.87;;;10.87;;
32625;SDS011;19038;50.922;11.880;2022-08-19T19:16:15;12.40;;;9.40;;
32625;SDS011;19038;50.922;11.880;2022-08-19T19:21:15;11.00;;;8.70;;
32625;SDS011;19038;50.922;11.880;2022-08-19T19:26:15;9.60;;;7.30;;
32625;SDS011;19038;50.922;11.880;2022-08-19T19:31:16;8.80;;;7.90;;
32625;SDS011;19038;50.922;11.880;2022-08-19T19:36:15;7.33;;;6.73;;
32625;SDS011;19038;50.922;11.880;2022-08-19T19:41:16;10.50;;;9.00;;
32625;SDS011;19038;50.922;11.880;2022-08-19T19:46:15;9.90;;;8.90;;
32625;SDS011;19038;50.922;11.880;2022-08-19T19:51:15;10.50;;;7.47;;
32625;SDS011;19038;50.922;11.880;2022-08-19T19:56:15;7.40;;;6.80;;
32625;SDS011;19038;50.922;11.880;2022-08-19T20:01:15;10.67;;;9.70;;
32625;SDS011;19038;50.922;11.880;2022-08-19T20:06:17;9.47;;;8.67;;
32625;SDS011;19038;50.922;11.880;2022-08-19T20:11:24;8.80;;;8.00;;
32625;SDS011;19038;50.922;11.880;2022-08-19T20:16:15;8.37;;;7.67;;
32625;SDS011;19038;50.922;11.880;2022-08-19T20:21:15;9.20;;;8.30;;
32625;SDS011;19038;50.922;11.880;2022-08-19T20:26:15;9.43;;;8.50;;
32625;SDS011;19038;50.922;11.880;2022-08-19T20:31:15;9.30;;;8.50;;
32625;SDS011;19038;50.922;11.880;2022-08-19T20:36:15;9.27;;;8.57;;
32625;SDS011;19038;50.922;11.880;2022-08-19T20:41:15;8.87;;;8.13;;
32625;SDS011;19038;50.922;11.880;2022-08-19T20:46:15;8.33;;;7.60;;
32625;SDS011;19038;50.922;11.880;2022-08-19T20:51:15;8.53;;;7.87;;
32625;SDS011;19038;50.922;11.880;2022-08-19T20:56:15;9.70;;;9.00;;
32625;SDS011;19038;50.922;11.880;2022-08-19T21:01:15;8.20;;;7.50;;
32625;SDS011;19038;50.922;11.880;2022-08-19T21:06:15;9.33;;;8.53;;
32625;SDS011;19038;50.922;11.880;2022-08-19T21:11:15;9.10;;;8.20;;
32625;SDS011;19038;50.922;11.880;2022-08-19T21:16:15;8.90;;;8.13;;
32625;SDS011;19038;50.922;11.880;2022-08-19T21:21:15;8.63;;;7.93;;
32625;SDS011;19038;50.922;11.880;2022-08-19T21:26:15;9.70;;;8.80;;
32625;SDS011;19038;50.922;11.880;2022-08-19T21:31:15;8.67;;;7.90;;
32625;SDS011;19038;50.922;11.880;2022-08-19T21:36:15;8.53;;;7.73;;
32625;SDS011;19038;50.922;11.880;2022-08-19T21:41:15;8.93;;;8.07;;
32625;SDS011;19038;50.922;11.880;2022-08-19T21:46:15;8.73;;;8.03;;
32625;SDS011;19038;50.922;11.880;2022-08-19T21:51:15;9.03;;;8.23;;
32625;SDS011;19038;50.922;11.880;2022-08-19T21:56:15;9.80;;;9.00;;
32625;SDS011;19038;50.922;11.880;2022-08-19T22:01:15;9.73;;;8.63;;
32625;SDS011;19038;50.922;11.880;2022-08-19T22:06:15;9.70;;;8.90;;
32625;SDS011;19038;50.922;11.880;2022-08-19T22:11:15;9.10;;;8.40;;
32625;SDS011;19038;50.922;11.880;2022-08-19T22:16:15;9.47;;;8.77;;
32625;SDS011;19038;50.922;11.880;2022-08-19T22:21:15;9.43;;;8.70;;
32625;SDS011;19038;50.922;11.880;2022-08-19T22:26:15;10.73;;;9.13;;
32625;SDS011;19038;50.922;11.880;2022-08-19T22:31:15;9.90;;;9.10;;
32625;SDS011;19038;50.922;11.880;2022-08-19T22:36:15;9.00;;;8.20;;
32625;SDS011;19038;50.922;11.880;2022-08-19T22:41:15;9.43;;;8.60;;
32625;SDS011;19038;50.922;11.880;2022-08-19T22:46:15;9.43;;;8.33;;
32625;SDS011;19038;50.922;11.880;2022-08-19T22:51:15;8.93;;;8.13;;
32625;SDS011;19038;50.922;11.880;2022-08-19T22:56:16;9.30;;;8.40;;
32625;SDS011;19038;50.922;11.880;2022-08-19T23:01:16;9.60;;;8.77;;
32625;SDS011;19038;50.922;11.880;2022-08-19T23:06:15;9.80;;;8.80;;
32625;SDS011;19038;50.922;11.880;2022-08-19T23:11:15;8.80;;;8.00;;
32625;SDS011;19038;50.922;11.880;2022-08-19T23:16:15;8.67;;;7.90;;
32625;SDS011;19038;50.922;11.880;2022-08-19T23:21:15;9.10;;;7.90;;
32625;SDS011;19038;50.922;11.880;2022-08-19T23:26:15;10.33;;;8.63;;
32625;SDS011;19038;50.922;11.880;2022-08-19T23:31:15;9.67;;;8.63;;
32625;SDS011;19038;50.922;11.880;2022-08-19T23:36:15;10.37;;;9.40;;
32625;SDS011;19038;50.922;11.880;2022-08-19T23:41:16;12.13;;;9.17;;
32625;SDS011;19038;50.922;11.880;2022-08-19T23:46:15;9.73;;;8.83;;
32625;SDS011;19038;50.922;11.880;2022-08-19T23:51:15;9.43;;;8.50;;
32625;SDS011;19038;50.922;11.880;2022-08-19T23:56:15;9.50;;;8.70;;
